createdAt,value
2023-04-26T00:00:11.905Z,90.61
2023-04-26T00:02:40.651Z,88.63
2023-04-26T00:05:10.618Z,88.26
2023-04-26T00:07:39.542Z,88.78
2023-04-26T00:10:09.849Z,90.09
2023-04-26T00:12:38.594Z,91.05
2023-04-26T00:15:10.634Z,90.70
2023-04-26T00:17:39.044Z,90.88
2023-04-26T00:20:11.678Z,88.97
2023-04-26T00:22:40.857Z,90.00
2023-04-26T00:25:11.514Z,89.35
2023-04-26T00:27:40.011Z,88.80
2023-04-26T00:30:11.976Z,89.96
2023-04-26T00:32:40.546Z,91.25
2023-04-26T00:35:10.569Z,90.86
2023-04-26T00:37:39.009Z,91.28
2023-04-26T00:40:09.215Z,90.33
2023-04-26T00:42:38.863Z,89.25
2023-04-26T00:45:10.181Z,89.08
2023-04-26T00:47:38.971Z,89.57
2023-04-26T00:50:10.667Z,89.82
2023-04-26T00:52:40.205Z,88.99
2023-04-26T00:55:10.302Z,88.99
2023-04-26T00:57:38.968Z,90.26
2023-04-26T01:00:11.738Z,90.11
2023-04-26T01:02:41.720Z,90.36
2023-04-26T01:05:11.053Z,89.88
2023-04-26T01:07:40.024Z,88.89
2023-04-26T01:10:10.520Z,88.17
2023-04-26T01:12:40.247Z,89.35
2023-04-26T01:15:12.713Z,88.43
2023-04-26T01:17:41.315Z,90.33
2023-04-26T01:20:12.248Z,88.55
2023-04-26T01:22:42.770Z,89.20
2023-04-26T01:25:13.960Z,89.18
2023-04-26T01:27:42.411Z,88.85
2023-04-26T01:30:12.791Z,89.43
2023-04-26T01:32:41.310Z,89.70
2023-04-26T01:35:10.664Z,89.67
2023-04-26T01:37:39.239Z,89.28
2023-04-26T01:40:11.581Z,89.95
2023-04-26T01:42:40.084Z,89.09
2023-04-26T01:45:09.435Z,90.69
2023-04-26T01:47:38.473Z,90.92
2023-04-26T01:50:09.282Z,91.07
2023-04-26T01:52:37.765Z,90.03
2023-04-26T01:55:09.338Z,89.83
2023-04-26T01:57:37.802Z,89.52
2023-04-26T02:00:09.005Z,89.51
2023-04-26T02:02:37.568Z,89.45
2023-04-26T02:05:07.311Z,90.85
2023-04-26T02:07:35.841Z,90.19
2023-04-26T02:10:04.606Z,90.19
2023-04-26T02:12:34.502Z,91.03
2023-04-26T02:15:04.448Z,90.34
2023-04-26T02:17:34.001Z,88.49
2023-04-26T02:20:02.561Z,88.29
2023-04-26T02:22:31.367Z,87.41
2023-04-26T02:24:59.978Z,88.59
2023-04-26T02:27:28.929Z,88.81
2023-04-26T02:29:58.770Z,89.73
2023-04-26T02:32:27.449Z,90.68
2023-04-26T02:34:56.150Z,90.17
2023-04-26T02:37:24.600Z,90.37
2023-04-26T02:39:53.117Z,89.61
2023-04-26T02:42:21.577Z,89.94
2023-04-26T02:44:50.081Z,91.25
2023-04-26T02:47:19.895Z,91.12
2023-04-26T02:49:48.553Z,91.45
2023-04-26T02:52:16.992Z,90.56
2023-04-26T02:54:45.837Z,90.61
2023-04-26T02:57:14.260Z,91.85
2023-04-26T02:59:44.399Z,92.36
2023-04-26T03:02:12.932Z,91.35
2023-04-26T03:04:43.005Z,91.72
2023-04-26T03:07:11.476Z,91.29
2023-04-26T03:09:39.937Z,91.91
2023-04-26T03:12:09.117Z,90.88
2023-04-26T03:14:38.096Z,91.34
2023-04-26T03:17:06.571Z,90.02
2023-04-26T03:19:35.062Z,90.14
2023-04-26T03:22:04.901Z,90.42
2023-04-26T03:24:33.324Z,90.66
2023-04-26T03:27:01.773Z,90.66
2023-04-26T03:29:30.198Z,89.55
2023-04-26T03:31:58.663Z,89.95
2023-04-26T03:34:27.489Z,91.14
2023-04-26T03:36:56.184Z,92.27
2023-04-26T03:39:26.171Z,90.50
2023-04-26T03:41:54.820Z,92.05
2023-04-26T03:44:23.227Z,92.45
2023-04-26T03:46:52.082Z,91.70
2023-04-26T03:49:21.370Z,92.11
2023-04-26T03:51:49.835Z,92.10
2023-04-26T03:54:18.257Z,90.01
2023-04-26T03:56:48.059Z,91.35
2023-04-26T03:59:16.467Z,90.65
2023-04-26T04:01:44.969Z,91.00
2023-04-26T04:04:13.746Z,90.85
2023-04-26T04:06:43.125Z,90.15
2023-04-26T04:09:11.888Z,90.65
2023-04-26T04:11:40.324Z,89.56
2023-04-26T04:14:10.218Z,90.07
2023-04-26T04:16:38.677Z,89.93
2023-04-26T04:19:07.149Z,90.02
2023-04-26T04:21:35.694Z,90.02
2023-04-26T04:24:05.077Z,90.04
2023-04-26T04:26:33.574Z,90.70
2023-04-26T04:29:08.815Z,90.13
2023-04-26T04:31:40.164Z,89.55
2023-04-26T04:34:09.070Z,91.51
2023-04-26T04:36:38.798Z,91.65
2023-04-26T04:39:12.520Z,91.67
2023-04-26T04:41:47.672Z,90.78
2023-04-26T04:44:17.036Z,91.36
2023-04-26T04:46:47.209Z,92.68
2023-04-26T04:49:16.124Z,92.99
2023-04-26T04:51:44.580Z,91.69
2023-04-26T04:54:13.857Z,92.07
2023-04-26T04:56:42.737Z,91.67
2023-04-26T04:59:11.214Z,90.78
2023-04-26T05:01:39.860Z,90.88
2023-04-26T05:04:10.514Z,92.14
2023-04-26T05:06:39.643Z,91.65
2023-04-26T05:09:08.080Z,90.31
2023-04-26T05:11:36.688Z,90.17
2023-04-26T05:14:05.419Z,91.02
2023-04-26T05:16:33.862Z,92.11
2023-04-26T05:19:02.552Z,90.40
2023-04-26T05:21:32.724Z,92.31
2023-04-26T05:24:01.554Z,91.70
2023-04-26T05:26:30.864Z,91.40
2023-04-26T05:28:59.368Z,90.97
2023-04-26T05:31:28.122Z,90.05
2023-04-26T05:33:57.375Z,91.05
2023-04-26T05:36:29.146Z,91.45
2023-04-26T05:38:59.861Z,91.43
2023-04-26T05:41:28.278Z,90.33
2023-04-26T05:43:57.116Z,90.94
2023-04-26T05:46:25.718Z,91.88
2023-04-26T05:48:54.268Z,90.66
2023-04-26T05:51:22.892Z,91.41
2023-04-26T05:53:52.251Z,90.86
2023-04-26T05:56:23.968Z,91.42
2023-04-26T05:58:53.431Z,90.61
2023-04-26T06:01:21.949Z,89.15
2023-04-26T06:03:51.379Z,89.86
2023-04-26T06:06:20.447Z,89.59
2023-04-26T06:08:48.934Z,92.00
2023-04-26T06:11:17.375Z,90.79
2023-04-26T06:13:47.849Z,89.44
2023-04-26T06:16:16.436Z,91.84
2023-04-26T06:18:45.923Z,91.15
2023-04-26T06:21:14.331Z,91.45
2023-04-26T06:23:43.300Z,89.67
2023-04-26T06:26:11.712Z,90.12
2023-04-26T06:28:42.105Z,90.91
2023-04-26T06:31:12.173Z,91.22
2023-04-26T06:36:30.983Z,89.42
2023-04-26T06:38:59.467Z,89.29
2023-04-26T06:41:28.062Z,88.68
2023-04-26T06:43:56.870Z,88.74
2023-04-26T06:46:26.808Z,86.97
2023-04-26T06:48:56.112Z,88.21
2023-04-26T06:51:24.550Z,87.59
2023-04-26T06:53:53.631Z,87.34
2023-04-26T06:56:23.731Z,86.71
2023-04-26T06:59:03.582Z,86.84
2023-04-26T07:01:35.023Z,85.58
2023-04-26T07:04:04.579Z,86.09
2023-04-26T07:06:33.502Z,84.93
2023-04-26T07:09:03.345Z,84.52
2023-04-26T07:11:32.828Z,85.17
2023-04-26T07:14:02.130Z,84.40
2023-04-26T07:16:32.701Z,80.70
2023-04-26T07:19:01.979Z,83.62
2023-04-26T07:21:30.598Z,82.42
2023-04-26T07:24:00.628Z,82.73
2023-04-26T07:26:29.803Z,83.16
2023-04-26T07:28:58.235Z,81.12
2023-04-26T07:31:27.892Z,81.47
2023-04-26T07:33:57.795Z,80.45
2023-04-26T07:36:28.611Z,80.82
2023-04-26T07:38:57.050Z,79.70
2023-04-26T07:41:25.598Z,85.29
2023-04-26T07:43:54.590Z,85.26
2023-04-26T07:46:26.700Z,86.15
2023-04-26T07:48:56.133Z,85.81
2023-04-26T07:51:27.492Z,86.20
2023-04-26T07:53:56.817Z,85.23
2023-04-26T07:56:25.825Z,78.08
2023-04-26T07:58:54.304Z,73.37
2023-04-26T08:01:23.778Z,72.96
2023-04-26T08:03:52.692Z,72.65
2023-04-26T08:06:22.361Z,74.59
2023-04-26T08:08:54.271Z,74.47
2023-04-26T08:11:22.960Z,77.62
2023-04-26T08:13:51.615Z,69.10
2023-04-26T08:16:20.254Z,73.22
2023-04-26T08:18:48.829Z,70.35
2023-04-26T08:21:17.563Z,71.29
2023-04-26T08:23:46.049Z,69.17
2023-04-26T08:26:16.640Z,66.60
2023-04-26T08:28:45.125Z,70.66
2023-04-26T08:31:15.668Z,72.29
2023-04-26T08:33:44.823Z,67.97
2023-04-26T08:36:13.265Z,69.56
2023-04-26T08:38:42.580Z,65.99
2023-04-26T08:41:17.888Z,68.18
2023-04-26T08:43:46.485Z,65.55
2023-04-26T08:46:20.784Z,70.76
2023-04-26T08:49:07.303Z,69.68
2023-04-26T08:51:37.970Z,68.98
2023-04-26T08:54:07.814Z,68.69
2023-04-26T08:56:37.744Z,69.26
2023-04-26T08:59:06.556Z,63.43
2023-04-26T09:01:36.563Z,65.38
2023-04-26T09:04:05.694Z,64.22
2023-04-26T09:06:35.140Z,62.64
2023-04-26T09:09:07.847Z,63.35
2023-04-26T09:11:57.854Z,65.04
2023-04-26T09:14:27.220Z,63.66
2023-04-26T09:16:56.188Z,63.35
2023-04-26T09:19:38.316Z,63.67
2023-04-26T09:22:07.520Z,64.23
2023-04-26T09:24:49.417Z,64.39
2023-04-26T09:27:19.432Z,60.43
2023-04-26T09:30:02.397Z,62.74
2023-04-26T09:32:51.222Z,63.33
2023-04-26T09:35:33.780Z,62.51
2023-04-26T09:38:11.093Z,61.95
2023-04-26T09:40:42.490Z,59.50
2023-04-26T09:43:14.259Z,61.92
2023-04-26T09:45:49.555Z,63.29
2023-04-26T09:48:23.155Z,59.60
2023-04-26T09:50:54.492Z,59.35
2023-04-26T09:53:31.631Z,61.87
2023-04-26T09:56:09.345Z,63.26
2023-04-26T09:58:41.743Z,60.86
2023-04-26T10:01:11.958Z,57.49
2023-04-26T10:03:41.875Z,61.48
2023-04-26T10:06:11.257Z,59.78
2023-04-26T10:08:39.834Z,61.10
2023-04-26T10:11:10.583Z,61.28
2023-04-26T10:13:41.614Z,57.96
2023-04-26T10:16:11.037Z,57.60
2023-04-26T10:18:39.720Z,56.03
2023-04-26T10:21:14.017Z,59.84
2023-04-26T10:23:43.173Z,59.07
2023-04-26T10:26:48.377Z,60.29
2023-04-26T10:29:18.474Z,57.01
2023-04-26T10:32:12.440Z,57.64
2023-04-26T10:34:41.690Z,55.88
2023-04-26T10:37:12.268Z,55.88
2023-04-26T10:39:42.383Z,57.08
2023-04-26T10:42:27.223Z,59.77
2023-04-26T10:44:58.881Z,59.09
2023-04-26T10:47:32.022Z,59.55
2023-04-26T10:50:07.554Z,52.31
2023-04-26T10:52:37.388Z,56.70
2023-04-26T10:55:08.131Z,55.96
2023-04-26T10:57:54.019Z,55.73
2023-04-26T11:00:34.298Z,56.89
2023-04-26T11:03:09.599Z,56.69
2023-04-26T11:05:42.695Z,56.50
2023-04-26T11:08:18.552Z,55.15
2023-04-26T11:10:53.435Z,51.85
2023-04-26T11:13:22.046Z,56.06
2023-04-26T11:16:03.341Z,54.36
2023-04-26T11:18:32.632Z,53.40
2023-04-26T11:21:01.403Z,56.85
2023-04-26T11:23:31.556Z,55.10
2023-04-26T11:26:00.386Z,55.24
2023-04-26T11:28:28.857Z,54.07
2023-04-26T11:30:59.031Z,56.89
2023-04-26T11:33:27.933Z,58.07
2023-04-26T11:35:58.564Z,55.97
2023-04-26T11:38:28.827Z,55.62
2023-04-26T11:40:59.579Z,60.25
2023-04-26T11:43:38.355Z,56.54
2023-04-26T11:46:10.173Z,54.81
2023-04-26T11:48:41.221Z,54.71
2023-04-26T11:51:11.910Z,54.11
2023-04-26T11:53:42.291Z,55.79
2023-04-26T11:56:18.094Z,59.42
2023-04-26T11:58:48.828Z,57.57
2023-04-26T12:01:26.633Z,57.30
2023-04-26T12:03:57.065Z,58.10
2023-04-26T12:06:33.911Z,56.18
2023-04-26T12:09:05.811Z,56.65
2023-04-26T12:11:34.388Z,56.35
2023-04-26T12:14:03.541Z,55.87
2023-04-26T12:16:33.421Z,55.99
2023-04-26T12:19:06.661Z,54.86
2023-04-26T12:21:42.785Z,55.88
2023-04-26T12:24:26.481Z,54.35
2023-04-26T12:26:55.029Z,57.13
2023-04-26T12:29:23.489Z,55.69
2023-04-26T12:31:53.347Z,55.09
2023-04-26T12:34:21.811Z,55.40
2023-04-26T12:36:50.528Z,58.60
2023-04-26T12:39:19.023Z,57.00
2023-04-26T12:41:47.652Z,59.74
2023-04-26T12:44:16.091Z,57.48
2023-04-26T12:46:44.747Z,59.62
2023-04-26T12:49:14.582Z,56.18
2023-04-26T12:51:43.251Z,55.81
2023-04-26T12:54:11.993Z,57.60
2023-04-26T12:56:43.970Z,57.35
2023-04-26T12:59:13.065Z,57.77
2023-04-26T13:01:41.871Z,57.83
2023-04-26T13:04:10.941Z,57.18
2023-04-26T13:06:41.121Z,58.48
2023-04-26T13:09:12.801Z,55.76
2023-04-26T13:11:41.802Z,57.47
2023-04-26T13:14:10.598Z,55.30
2023-04-26T13:16:42.612Z,58.61
2023-04-26T13:19:11.637Z,57.09
2023-04-26T13:21:42.245Z,58.40
2023-04-26T13:24:11.038Z,58.47
2023-04-26T13:26:39.497Z,57.49
2023-04-26T13:29:08.733Z,57.52
2023-04-26T13:31:37.859Z,58.37
2023-04-26T13:34:07.054Z,58.08
2023-04-26T13:36:35.535Z,56.24
2023-04-26T13:39:07.319Z,56.75
2023-04-26T13:41:36.249Z,58.79
2023-04-26T13:44:05.850Z,60.26
2023-04-26T13:46:34.376Z,59.53
2023-04-26T13:49:02.885Z,58.82
2023-04-26T13:51:32.917Z,58.03
2023-04-26T13:54:01.731Z,59.95
2023-04-26T13:56:31.783Z,57.57
2023-04-26T13:59:01.452Z,55.65
2023-04-26T14:01:30.136Z,55.13
2023-04-26T14:03:58.860Z,56.98
2023-04-26T14:06:28.883Z,57.65
2023-04-26T14:08:57.883Z,57.14
2023-04-26T14:11:26.523Z,53.79
2023-04-26T14:13:57.091Z,53.45
2023-04-26T14:16:27.015Z,56.00
2023-04-26T14:18:55.704Z,55.44
2023-04-26T14:21:24.217Z,56.73
2023-04-26T14:23:52.686Z,58.35
2023-04-26T14:26:21.616Z,55.12
2023-04-26T14:28:50.040Z,54.29
2023-04-26T14:31:20.022Z,52.97
2023-04-26T14:33:48.742Z,57.01
2023-04-26T14:36:17.233Z,52.43
2023-04-26T14:38:47.327Z,56.03
2023-04-26T14:41:16.749Z,54.70
2023-04-26T14:43:46.387Z,54.56
2023-04-26T14:46:15.162Z,55.03
2023-04-26T14:48:45.801Z,58.15
2023-04-26T14:51:14.373Z,55.29
2023-04-26T14:53:42.875Z,57.07
2023-04-26T14:56:13.822Z,52.64
2023-04-26T14:58:42.303Z,55.33
2023-04-26T15:01:10.878Z,54.97
2023-04-26T15:03:40.000Z,58.25
2023-04-26T15:06:11.241Z,55.03
2023-04-26T15:08:39.740Z,54.33
2023-04-26T15:11:08.267Z,56.68
2023-04-26T15:13:37.037Z,56.19
2023-04-26T15:16:07.982Z,53.05
2023-04-26T15:18:37.810Z,55.63
2023-04-26T15:21:06.532Z,53.42
2023-04-26T15:23:36.456Z,53.82
2023-04-26T15:26:05.159Z,54.61
2023-04-26T15:28:34.030Z,55.06
2023-04-26T15:31:07.134Z,55.01
2023-04-26T15:33:36.082Z,55.16
2023-04-26T15:36:05.468Z,56.37
2023-04-26T15:38:36.772Z,55.97
2023-04-26T15:41:06.630Z,56.02
2023-04-26T15:43:35.048Z,55.63
2023-04-26T15:46:03.540Z,55.29
2023-04-26T15:48:32.006Z,53.66
2023-04-26T15:51:00.778Z,53.16
2023-04-26T15:53:29.283Z,53.41
2023-04-26T15:55:59.338Z,54.09
2023-04-26T15:58:27.754Z,55.35
2023-04-26T16:00:56.192Z,54.57
2023-04-26T16:03:24.869Z,51.06
2023-04-26T16:05:53.622Z,51.50
2023-04-26T16:08:39.457Z,51.68
2023-04-26T16:11:10.587Z,51.79
2023-04-26T16:13:39.402Z,51.48
2023-04-26T16:16:09.167Z,50.66
2023-04-26T16:18:39.937Z,50.75
2023-04-26T16:21:09.875Z,50.95
2023-04-26T16:23:39.456Z,50.36
2023-04-26T16:26:09.702Z,51.71
2023-04-26T16:28:38.362Z,53.40
2023-04-26T16:31:07.395Z,52.17
2023-04-26T16:33:36.007Z,55.44
2023-04-26T16:36:05.004Z,54.81
2023-04-26T16:38:33.439Z,55.37
2023-04-26T16:41:02.539Z,56.44
2023-04-26T16:43:33.296Z,55.96
2023-04-26T16:46:03.248Z,56.17
2023-04-26T16:48:32.910Z,57.05
2023-04-26T16:51:02.576Z,56.49
2023-04-26T16:53:32.443Z,55.99
2023-04-26T16:56:01.356Z,55.99
2023-04-26T16:58:31.197Z,55.71
2023-04-26T17:00:59.605Z,57.33
2023-04-26T17:03:28.698Z,56.83
2023-04-26T17:05:57.302Z,56.70
2023-04-26T17:08:27.288Z,56.92
2023-04-26T17:10:55.740Z,58.57
2023-04-26T17:13:29.176Z,58.25
2023-04-26T17:15:59.095Z,58.47
2023-04-26T17:18:27.548Z,57.45
2023-04-26T17:20:57.141Z,60.13
2023-04-26T17:23:25.662Z,60.52
2023-04-26T17:25:55.398Z,61.00
2023-04-26T17:28:24.105Z,62.11
2023-04-26T17:30:52.639Z,60.37
2023-04-26T17:33:22.684Z,60.01
2023-04-26T17:35:51.170Z,60.05
2023-04-26T17:38:19.827Z,60.71
2023-04-26T17:40:52.918Z,60.74
2023-04-26T17:43:21.835Z,61.70
2023-04-26T17:45:50.304Z,62.41
2023-04-26T17:48:18.750Z,62.00
2023-04-26T17:50:48.935Z,62.89
2023-04-26T17:53:17.572Z,63.19
2023-04-26T17:55:45.993Z,63.25
2023-04-26T17:58:14.484Z,64.34
2023-04-26T18:00:43.460Z,65.13
2023-04-26T18:03:12.150Z,65.14
2023-04-26T18:05:40.818Z,65.30
2023-04-26T18:08:10.783Z,67.43
2023-04-26T18:10:39.220Z,68.62
2023-04-26T18:13:07.944Z,70.06
2023-04-26T18:15:36.450Z,73.01
2023-04-26T18:18:08.211Z,73.54
2023-04-26T18:20:37.746Z,73.53
2023-04-26T18:23:06.443Z,73.26
2023-04-26T18:25:36.365Z,75.80
2023-04-26T18:28:05.311Z,75.53
2023-04-26T18:30:33.744Z,76.38
2023-04-26T18:33:02.468Z,75.66
2023-04-26T18:35:31.464Z,73.87
2023-04-26T18:37:59.922Z,74.29
2023-04-26T18:40:28.382Z,75.01
2023-04-26T18:42:58.901Z,74.23
2023-04-26T18:45:27.423Z,72.65
2023-04-26T18:47:56.382Z,72.56
2023-04-26T18:50:24.892Z,72.79
2023-04-26T18:52:53.623Z,76.13
2023-04-26T18:55:22.133Z,77.25
2023-04-26T18:57:50.674Z,75.29
2023-04-26T19:00:21.493Z,75.25
2023-04-26T19:02:51.108Z,79.23
2023-04-26T19:05:19.977Z,77.91
2023-04-26T19:07:50.057Z,76.65
2023-04-26T19:10:18.727Z,75.52
2023-04-26T19:12:47.224Z,77.50
2023-04-26T19:15:16.079Z,76.70
2023-04-26T19:17:46.645Z,75.86
2023-04-26T19:20:15.365Z,75.37
2023-04-26T19:22:45.317Z,75.61
2023-04-26T19:25:14.073Z,75.28
2023-04-26T19:27:42.615Z,76.44
2023-04-26T19:30:12.243Z,77.83
2023-04-26T19:32:40.734Z,78.54
2023-04-26T19:35:11.003Z,78.82
2023-04-26T19:37:39.725Z,77.69
2023-04-26T19:40:10.279Z,78.82
2023-04-26T19:42:38.815Z,78.77
2023-04-26T19:45:09.122Z,76.99
2023-04-26T19:47:37.554Z,76.05
2023-04-26T19:50:07.065Z,76.91
2023-04-26T19:52:36.915Z,76.81
2023-04-26T19:55:06.373Z,76.81
2023-04-26T19:57:34.795Z,76.73
2023-04-26T20:00:05.084Z,77.90
2023-04-26T20:02:33.661Z,76.61
2023-04-26T20:05:02.171Z,79.00
2023-04-26T20:07:30.613Z,80.63
2023-04-26T20:10:00.424Z,81.10
2023-04-26T20:12:29.093Z,81.63
2023-04-26T20:14:57.516Z,79.59
2023-04-26T20:17:26.034Z,78.79
2023-04-26T20:19:54.493Z,78.70
2023-04-26T20:22:22.919Z,79.55
2023-04-26T20:24:51.379Z,79.43
2023-04-26T20:27:21.261Z,79.79
2023-04-26T20:29:49.908Z,81.29
2023-04-26T20:32:18.456Z,81.23
2023-04-26T20:34:46.998Z,81.76
2023-04-26T20:37:15.581Z,82.50
2023-04-26T20:39:44.273Z,81.78
2023-04-26T20:42:12.738Z,79.73
2023-04-26T20:44:42.646Z,81.46
2023-04-26T20:47:11.444Z,81.72
2023-04-26T20:49:40.124Z,81.17
2023-04-26T20:52:08.717Z,79.66
2023-04-26T20:54:37.236Z,81.82
2023-04-26T20:57:05.895Z,81.93
2023-04-26T20:59:34.420Z,82.20
2023-04-26T21:02:05.147Z,83.21
2023-04-26T21:04:35.342Z,84.42
2023-04-26T21:07:04.077Z,84.07
2023-04-26T21:09:32.537Z,84.19
2023-04-26T21:12:01.078Z,84.73
2023-04-26T21:14:29.576Z,83.00
2023-04-26T21:16:58.019Z,83.73
2023-04-26T21:19:27.917Z,84.20
2023-04-26T21:21:56.741Z,83.81
2023-04-26T21:24:25.257Z,83.49
2023-04-26T21:26:54.206Z,83.96
2023-04-26T21:29:22.837Z,82.62
2023-04-26T21:31:51.724Z,83.37
2023-04-26T21:34:20.393Z,84.91
2023-04-26T21:36:50.825Z,85.28
2023-04-26T21:39:19.290Z,85.27
2023-04-26T21:41:47.936Z,85.00
2023-04-26T21:44:16.350Z,84.46
2023-04-26T21:46:44.804Z,85.26
2023-04-26T21:49:13.457Z,84.71
2023-04-26T21:51:41.869Z,84.44
2023-04-26T21:54:11.931Z,83.96
2023-04-26T21:56:41.420Z,83.66
2023-04-26T21:59:10.433Z,83.79
2023-04-26T22:01:39.016Z,82.58
2023-04-26T22:04:07.566Z,82.32
2023-04-26T22:06:36.148Z,81.69
2023-04-26T22:09:04.868Z,81.54
2023-04-26T22:11:34.683Z,81.73
2023-04-26T22:14:03.340Z,81.85
2023-04-26T22:16:32.237Z,82.35
2023-04-26T22:19:00.892Z,84.35
2023-04-26T22:21:29.537Z,86.06
2023-04-26T22:23:57.960Z,85.81
2023-04-26T22:26:26.760Z,85.50
2023-04-26T22:28:56.609Z,85.37
2023-04-26T22:31:25.138Z,84.86
2023-04-26T22:33:53.685Z,85.38
2023-04-26T22:36:22.401Z,85.56
2023-04-26T22:38:50.820Z,83.91
2023-04-26T22:41:19.281Z,84.21
2023-04-26T22:43:48.033Z,83.10
2023-04-26T22:46:18.485Z,83.64
2023-04-26T22:48:46.950Z,84.72
2023-04-26T22:51:15.654Z,84.96
2023-04-26T22:53:44.076Z,85.37
2023-04-26T22:56:12.557Z,86.42
2023-04-26T22:58:40.998Z,85.55
2023-04-26T23:01:09.472Z,84.91
2023-04-26T23:03:39.461Z,85.07
2023-04-26T23:06:08.457Z,85.22
2023-04-26T23:08:36.850Z,85.57
2023-04-26T23:11:09.438Z,85.47
2023-04-26T23:13:38.039Z,85.41
2023-04-26T23:16:07.821Z,86.37
2023-04-26T23:18:37.249Z,85.10
2023-04-26T23:21:07.300Z,85.01
2023-04-26T23:23:35.994Z,86.15
2023-04-26T23:26:08.373Z,84.25
2023-04-26T23:28:37.181Z,84.90
2023-04-26T23:31:05.808Z,87.10
2023-04-26T23:33:34.603Z,85.57
2023-04-26T23:36:03.101Z,85.22
2023-04-26T23:38:32.993Z,85.57
2023-04-26T23:41:01.427Z,86.53
2023-04-26T23:43:29.937Z,86.28
2023-04-26T23:45:58.678Z,87.87
2023-04-26T23:48:27.465Z,86.32
2023-04-26T23:50:56.225Z,86.91
2023-04-26T23:53:24.943Z,85.57
2023-04-26T23:55:55.129Z,86.02
2023-04-26T23:58:23.530Z,85.43
